ADDS METAR Data INFO
IDs: Format: Raw Decoded Include TAF

Data at: 1417 UTC 12 Dec 2017

KPTT 121355Z AUTO 29007KT 10SM CLR M05/M07 A3040 RMK AO2 T10461072
KPTT 121335Z AUTO 29008KT 10SM CLR M04/M07 A3040 RMK AO2 T10451070
KPTT 121315Z AUTO 30009KT 10SM CLR M04/M07 A3040 RMK AO2 T10421067
KPTT 121255Z AUTO 29008KT 10SM CLR M04/M07 A3040 RMK AO2 T10431067
KPTT 121235Z AUTO 29009KT 10SM CLR M04/M06 A3040 RMK AO2 T10401065
KPTT 121215Z AUTO 30008KT 10SM CLR M03/M06 A3040 RMK AO2 T10351061
KPTT 121155Z AUTO 31007KT 10SM CLR M03/M06 A3040 RMK AO2 T10351060 10003 21036
KPTT 121135Z AUTO 30008KT 10SM CLR M04/M06 A3040 RMK AO2 T10361061
KPTT 121115Z AUTO 31008KT 10SM CLR M03/M06 A3040 RMK AO2 T10311058
KPTT 121055Z AUTO 31008KT 10SM CLR M03/M05 A3040 RMK AO2 T10301055
KPTT 121035Z AUTO 31008KT 10SM CLR M03/M06 A3041 RMK AO2 T10301056
KPTT 121015Z AUTO 30008KT 10SM CLR M03/M06 A3042 RMK AO2 T10311057
KPTT 120955Z AUTO 30008KT 10SM CLR M03/M06 A3042 RMK AO2 T10301056
KPTT 120935Z AUTO 29007KT 10SM CLR M03/M05 A3042 RMK AO2 T10261052
KPTT 120915Z AUTO 30008KT 10SM CLR M03/M05 A3042 RMK AO2 T10261054
KPTT 120855Z AUTO 29009KT 10SM CLR M03/M05 A3042 RMK AO2 T10261053
KPTT 120835Z AUTO 30009KT 10SM CLR M01/M05 A3042 RMK AO2 T10141047
KPTT 120815Z AUTO 35009KT 10SM CLR M02/M05 A3040 RMK AO2 T10161046
KPTT 120755Z AUTO 34008KT 10SM CLR M01/M05 A3040 RMK AO2 T10121047
KPTT 120735Z AUTO 32008KT 10SM CLR M01/M05 A3041 RMK AO2 T10101046
KPTT 120715Z AUTO 32008KT 10SM CLR M01/M05 A3040 RMK AO2 T10101046
KPTT 120655Z AUTO 31007KT 10SM CLR M01/M05 A3040 RMK AO2 T10091046
KPTT 120635Z AUTO 33008KT 10SM CLR 00/M04 A3039 RMK AO2 T00001042
KPTT 120615Z AUTO 34009KT 10SM CLR 00/M04 A3039 RMK AO2 T00021040
KPTT 120555Z AUTO 34007KT 10SM CLR 00/M04 A3039 RMK AO2 T00001042 10101 21007 401811013
KPTT 120535Z AUTO 34006KT 10SM CLR M01/M05 A3039 RMK AO2 T10071049
KPTT 120515Z AUTO 35008KT 10SM CLR 00/M04 A3038 RMK AO2 T00041042
KPTT 120455Z AUTO 35009KT 10SM CLR 01/M04 A3038 RMK AO2 T00131039
KPTT 120435Z AUTO 36012KT 10SM CLR 03/M03 A3037 RMK AO2 T00281035
KPTT 120415Z AUTO 36013KT 10SM CLR 03/M03 A3035 RMK AO2 T00311035
KPTT 120355Z AUTO 36012KT 10SM CLR 04/M03 A3036 RMK AO2 T00361035
KPTT 120335Z AUTO 36012G19KT 10SM CLR 04/M04 A3036 RMK AO2 T00421037
KPTT 120315Z AUTO 36016KT 10SM CLR 05/M04 A3035 RMK AO2 T00501039
KPTT 120255Z AUTO 01016G23KT 10SM CLR 06/M04 A3034 RMK AO2 T00591039
KPTT 120235Z AUTO 01016G20KT 10SM CLR 06/M04 A3033 RMK AO2 T00641042
KPTT 120215Z AUTO 01011KT 10SM CLR 07/M04 A3032 RMK AO2 T00681045
KPTT 120155Z AUTO 01009KT 10SM CLR 06/M06 A3030 RMK AO2 T00641060
KPTT 120135Z AUTO 01010KT 10SM CLR 07/M07 A3029 RMK AO2 T00731069
KPTT 120115Z AUTO 36016G21KT 10SM CLR 08/M07 A3027 RMK AO2 T00771075
KPTT 120055Z AUTO 35011KT 10SM CLR 08/M08 A3025 RMK AO2 T00801076
KPTT 120035Z AUTO 35014KT 10SM CLR 09/M08 A3024 RMK AO2 T00851076
KPTT 120015Z AUTO 35019G24KT 10SM CLR 10/M08 A3023 RMK AO2 T00951082
KPTT 112355Z AUTO 36016G19KT 10SM CLR 10/M09 A3022 RMK AO2 T01021091 10181 20102
KPTT 112335Z AUTO 01018G24KT 10SM CLR 12/M11 A3020 RMK AO2 T01161115
KPTT 112315Z AUTO 36016G22KT 10SM CLR 13/M13 A3019 RMK AO2 T01281129
KPTT 112255Z AUTO 35020G26KT 10SM CLR 14/M14 A3019 RMK AO2 T01381139
KPTT 112235Z AUTO 35020G29KT 10SM CLR 15/M15 A3018 RMK AO2 T01491151
KPTT 112215Z AUTO 35026G32KT 10SM CLR 16/M16 A3016 RMK AO2 T01601160
KPTT 112155Z AUTO 33023G29KT 10SM CLR 17/M13 A3015 RMK AO2 T01691126
KPTT 112135Z AUTO 34026G32KT 7SM CLR 17/M13 A3015 RMK AO2 T01711126
KPTT 112115Z AUTO 33021G25KT 10SM CLR 17/M11 A3014 RMK AO2 T01691113
KPTT 112055Z AUTO 34023G27KT 10SM CLR 17/M12 A3014 RMK AO2 T01731119
KPTT 112035Z AUTO 32016G21KT 10SM CLR 18/M11 A3014 RMK AO2 T01751111
KPTT 112015Z AUTO 32016G23KT 10SM CLR 17/M11 A3014 RMK AO2 T01671111
KPTT 111955Z AUTO 32017G23KT 10SM CLR 18/M11 A3015 RMK AO2 T01761107
KPTT 111935Z AUTO 32016KT 10SM CLR 17/M11 A3015 RMK AO2 T01711110
KPTT 111915Z AUTO 34017G23KT 10SM CLR 17/M11 A3015 RMK AO2 T01701111
KPTT 111855Z AUTO 34017KT 10SM CLR 17/M11 A3016 RMK AO2 T01681109
KPTT 111835Z AUTO 35016G23KT 10SM CLR 16/M12 A3016 RMK AO2 T01631116
KPTT 111815Z AUTO 35015G22KT 10SM CLR 16/M12 A3018 RMK AO2 T01611118
KPTT 111755Z AUTO 34015KT 10SM CLR 15/M12 A3019 RMK AO2 T01521117 10152 21013
KPTT 111735Z AUTO 35018G23KT 10SM CLR 14/M12 A3019 RMK AO2 T01441120
KPTT 111715Z AUTO 34017G21KT 10SM CLR 14/M12 A3020 RMK AO2 T01371123
KPTT 111655Z AUTO 34020G23KT 10SM CLR 13/M12 A3020 RMK AO2 T01271125
KPTT 111635Z AUTO 34018KT 10SM CLR 12/M12 A3020 RMK AO2 T01221125
KPTT 111615Z AUTO 34018G23KT 10SM CLR 12/M12 A3020 RMK AO2 T01151124
KPTT 111555Z AUTO 33016G21KT 10SM CLR 10/M13 A3019 RMK AO2 T01031127
KPTT 111535Z AUTO 33016G19KT 10SM CLR 08/M13 A3019 RMK AO2 T00791130
KPTT 111515Z AUTO 32014KT 10SM CLR 06/M13 A3020 RMK AO2 T00621134
KPTT 111455Z AUTO 32015KT 10SM CLR 05/M14 A3019 RMK AO2 T00501138
KPTT 111435Z AUTO 31013KT 10SM CLR 03/M14 A3019 RMK AO2 T00331138
KPTT 111415Z AUTO 31013KT 10SM CLR 01/M14 A3018 RMK AO2 T00141140
KPTT 111355Z AUTO 30013KT 10SM CLR 02/M14 A3018 RMK AO2 T00151145
KPTT 111335Z AUTO 30012KT 10SM CLR 01/M14 A3016 RMK AO2 T00061143
KPTT 111315Z AUTO 30012KT 10SM CLR 00/M14 A3017 RMK AO2 T00011141
KPTT 111255Z AUTO 29011KT 10SM CLR M01/M14 A3017 RMK AO2 T10101137
KPTT 111235Z AUTO 28008KT 10SM CLR M01/M13 A3016 RMK AO2 T10131135
KPTT 111215Z AUTO 29009KT 10SM CLR M01/M14 A3016 RMK AO2 T10101136
KPTT 111155Z AUTO 30011KT 10SM CLR 00/M14 A3016 RMK AO2 T10031136 10048 21007
KPTT 111135Z AUTO 29010KT 10SM CLR 00/M14 A3016 RMK AO2 T00001136
KPTT 111115Z AUTO 31012KT 10SM CLR 00/M14 A3016 RMK AO2 T00001136
KPTT 111055Z AUTO 31010KT 10SM CLR 00/M14 A3016 RMK AO2 T10031138
KPTT 111035Z AUTO 30011KT 10SM CLR 01/M14 A3016 RMK AO2 T00061138
KPTT 111015Z AUTO 29010KT 10SM CLR 01/M14 A3016 RMK AO2 T00071137
KPTT 110955Z AUTO 27009KT 10SM CLR 01/M14 A3016 RMK AO2 T00131137
KPTT 110935Z AUTO 28010KT 10SM CLR 02/M14 A3018 RMK AO2 T00171139
KPTT 110915Z AUTO 28011KT 10SM CLR 01/M14 A3018 RMK AO2 T00111137
KPTT 110855Z AUTO 29010KT 10SM CLR 01/M14 A3018 RMK AO2 T00141136
KPTT 110835Z AUTO 29011KT 10SM CLR 02/M14 A3019 RMK AO2 T00161136
KPTT 110815Z AUTO 28010KT 10SM CLR 03/M13 A3020 RMK AO2 T00251135
KPTT 110755Z AUTO 27008KT 10SM CLR 02/M13 A3020 RMK AO2 T00201134
KPTT 110735Z AUTO 26011KT 10SM CLR 02/M13 A3021 RMK AO2 T00221132
KPTT 110715Z AUTO 27008KT 10SM CLR 02/M13 A3021 RMK AO2 T00211130
KPTT 110655Z AUTO 28012KT 10SM CLR 04/M13 A3021 RMK AO2 T00361131
KPTT 110635Z AUTO 26010KT 10SM CLR 04/M13 A3021 RMK AO2 T00391130
KPTT 110615Z AUTO 26009KT 10SM CLR 04/M13 A3022 RMK AO2 T00401128
KPTT 110555Z AUTO 28010KT 10SM CLR 04/M12 A3022 RMK AO2 T00441124 10111 20010 401911006
KPTT 110535Z AUTO 27008KT 10SM CLR 01/M12 A3023 RMK AO2 T00111125
KPTT 110515Z AUTO 26009KT 10SM CLR 02/M13 A3023 RMK AO2 T00241130
KPTT 110455Z AUTO 27008KT 10SM CLR 04/M13 A3023 RMK AO2 T00441130
KPTT 110435Z AUTO 26007KT 10SM CLR 03/M12 A3023 RMK AO2 T00281117
KPTT 110415Z AUTO 26004KT 10SM CLR 02/M12 A3023 RMK AO2 T00161120
KPTT 110355Z AUTO 24007KT 10SM CLR 03/M12 A3023 RMK AO2 T00321116
KPTT 110335Z AUTO 27005KT 10SM CLR 04/M11 A3023 RMK AO2 T00401113
KPTT 110315Z AUTO 27009KT 10SM CLR 04/M11 A3023 RMK AO2 T00371111
KPTT 110255Z AUTO 27007KT 10SM CLR 05/M11 A3024 RMK AO2 T00491110
KPTT 110235Z AUTO 27006KT 10SM CLR 03/M11 A3024 RMK AO2 T00301106